Time,TemperatureF,DewpointF,PressureIn,WindDirection,WindDirectionDegrees,WindSpeedMPH,WindSpeedGustMPH,Humidity,HourlyPrecipIn,Conditions,Clouds,dailyrainin,SoftwareType,DateUTC
2013-06-23 00:01:00,72.5,71.2,30.16,SE,135,0.7,1.6,96,0.00,,,0.00,meteobridge,2013-06-23 04:01:00,
2013-06-23 00:02:00,72.5,71.2,30.16,SE,135,1.6,1.6,96,0.00,,,0.00,meteobridge,2013-06-23 04:02:00,
2013-06-23 00:07:00,72.7,71.4,30.16,SE,135,2.2,2.2,96,0.00,,,0.00,meteobridge,2013-06-23 04:07:00,
2013-06-23 00:12:00,72.7,71.4,30.17,SE,135,1.6,1.6,96,0.00,,,0.00,meteobridge,2013-06-23 04:12:00,
2013-06-23 00:17:00,72.7,71.4,30.16,SE,135,1.6,1.6,96,0.00,,,0.00,meteobridge,2013-06-23 04:17:00,
2013-06-23 00:22:00,72.9,71.6,30.16,SE,135,2.2,2.2,96,0.00,,,0.00,meteobridge,2013-06-23 04:22:00,
2013-06-23 00:28:00,72.9,71.4,30.16,ESE,113,1.6,2.2,95,0.00,,,0.00,meteobridge,2013-06-23 04:28:00,
2013-06-23 00:33:00,73.0,71.6,30.17,SE,135,2.2,3.1,95,0.00,,,0.00,meteobridge,2013-06-23 04:33:00,
2013-06-23 00:38:00,73.0,71.6,30.17,SE,135,2.2,2.2,95,0.00,,,0.00,meteobridge,2013-06-23 04:38:00,
2013-06-23 00:43:00,73.0,71.2,30.17,SE,135,3.1,3.1,94,0.00,,,0.00,meteobridge,2013-06-23 04:43:00,
2013-06-23 00:48:00,73.2,71.4,30.16,SE,135,1.6,1.6,94,0.00,,,0.00,meteobridge,2013-06-23 04:48:00,
2013-06-23 00:53:00,73.2,71.4,30.17,South,180,0.0,1.6,94,0.00,,,0.00,meteobridge,2013-06-23 04:53:00,
2013-06-23 00:59:00,73.2,71.1,30.16,SE,135,2.2,2.2,93,0.00,,,0.00,meteobridge,2013-06-23 04:59:00,
2013-06-23 01:04:00,73.2,71.1,30.16,SE,135,2.2,2.2,93,0.00,,,0.00,meteobridge,2013-06-23 05:04:00,
2013-06-23 01:09:00,73.2,71.1,30.16,SE,135,2.2,3.8,93,0.00,,,0.00,meteobridge,2013-06-23 05:09:00,
2013-06-23 01:14:00,73.2,71.1,30.17,SE,135,1.6,2.2,93,0.00,,,0.00,meteobridge,2013-06-23 05:14:00,
2013-06-23 01:19:00,73.0,71.2,30.16,SE,135,1.6,3.1,94,0.00,,,0.00,meteobridge,2013-06-23 05:19:00,
2013-06-23 01:24:00,73.0,71.2,30.17,South,180,1.6,3.1,94,0.00,,,0.00,meteobridge,2013-06-23 05:24:00,
2013-06-23 01:30:00,72.9,71.1,30.16,SE,135,1.6,2.2,94,0.00,,,0.00,meteobridge,2013-06-23 05:30:00,
2013-06-23 01:35:00,72.9,71.1,30.16,South,180,2.2,2.2,94,0.00,,,0.00,meteobridge,2013-06-23 05:35:00,
2013-06-23 01:40:00,72.7,70.9,30.16,South,180,2.2,2.2,94,0.00,,,0.00,meteobridge,2013-06-23 05:40:00,
2013-06-23 01:45:00,72.7,71.2,30.16,SE,135,0.7,1.6,95,0.00,,,0.00,meteobridge,2013-06-23 05:45:00,
2013-06-23 01:50:00,72.5,71.1,30.15,East,90,1.6,1.6,95,0.00,,,0.00,meteobridge,2013-06-23 05:50:00,
2013-06-23 01:56:00,72.5,71.1,30.15,SE,135,2.2,2.2,95,0.00,,,0.00,meteobridge,2013-06-23 05:56:00,
2013-06-23 02:01:00,72.3,70.9,30.14,SE,135,1.6,2.2,95,0.00,,,0.00,meteobridge,2013-06-23 06:01:00,
2013-06-23 02:02:00,72.3,70.9,30.15,SE,135,1.6,2.2,95,0.00,,,0.00,meteobridge,2013-06-23 06:02:00,
2013-06-23 02:07:00,72.1,70.9,30.15,East,90,3.1,3.1,96,0.00,,,0.00,meteobridge,2013-06-23 06:07:00,
2013-06-23 02:12:00,71.8,70.5,30.15,SE,135,2.2,2.2,96,0.00,,,0.00,meteobridge,2013-06-23 06:12:00,
2013-06-23 02:17:00,71.6,70.3,30.15,SE,135,2.2,2.2,96,0.00,,,0.00,meteobridge,2013-06-23 06:17:00,
2013-06-23 02:23:00,71.4,70.5,30.15,East,90,1.6,1.6,97,0.00,,,0.00,meteobridge,2013-06-23 06:23:00,
2013-06-23 02:28:00,71.2,70.7,30.15,SE,135,0.0,1.6,98,0.00,,,0.00,meteobridge,2013-06-23 06:28:00,
2013-06-23 02:33:00,71.6,70.7,30.15,SE,135,1.6,2.2,97,0.00,,,0.00,meteobridge,2013-06-23 06:33:00,
2013-06-23 02:38:00,71.4,70.9,30.15,SE,135,2.2,2.2,98,0.00,,,0.00,meteobridge,2013-06-23 06:38:00,
2013-06-23 02:43:00,71.2,70.7,30.15,East,90,3.1,3.1,98,0.00,,,0.00,meteobridge,2013-06-23 06:43:00,
2013-06-23 02:48:00,71.1,70.5,30.15,East,90,2.2,2.2,98,0.00,,,0.00,meteobridge,2013-06-23 06:48:00,
2013-06-23 02:54:00,71.2,70.7,30.15,SE,135,1.6,1.6,98,0.00,,,0.00,meteobridge,2013-06-23 06:54:00,
2013-06-23 02:59:00,71.2,70.7,30.14,East,90,2.2,2.2,98,0.00,,,0.00,meteobridge,2013-06-23 06:59:00,
2013-06-23 03:04:00,71.1,70.5,30.15,SE,135,1.6,3.1,98,0.00,,,0.00,meteobridge,2013-06-23 07:04:00,
2013-06-23 03:09:00,71.1,70.5,30.15,East,90,2.2,2.2,98,0.00,,,0.00,meteobridge,2013-06-23 07:09:00,
2013-06-23 03:14:00,70.9,70.3,30.15,SE,135,1.6,1.6,98,0.00,,,0.00,meteobridge,2013-06-23 07:14:00,
2013-06-23 03:19:00,70.9,70.3,30.15,ESE,113,3.1,3.1,98,0.00,,,0.00,meteobridge,2013-06-23 07:19:00,
2013-06-23 03:25:00,70.9,70.3,30.15,ESE,113,1.6,2.2,98,0.00,,,0.00,meteobridge,2013-06-23 07:25:00,
2013-06-23 03:30:00,70.9,70.3,30.15,East,90,3.1,3.1,98,0.00,,,0.00,meteobridge,2013-06-23 07:30:00,
2013-06-23 03:35:00,70.9,70.3,30.15,SE,135,3.1,3.1,98,0.00,,,0.00,meteobridge,2013-06-23 07:35:00,
2013-06-23 03:40:00,70.9,70.3,30.15,SE,135,3.8,3.8,98,0.00,,,0.00,meteobridge,2013-06-23 07:40:00,
2013-06-23 03:45:00,70.9,70.3,30.15,SE,135,1.6,3.1,98,0.00,,,0.00,meteobridge,2013-06-23 07:45:00,
2013-06-23 03:50:00,70.9,70.3,30.15,SE,135,3.1,3.1,98,0.00,,,0.00,meteobridge,2013-06-23 07:50:00,
2013-06-23 03:56:00,71.1,70.5,30.15,East,90,3.1,3.1,98,0.00,,,0.00,meteobridge,2013-06-23 07:56:00,
2013-06-23 04:01:00,71.2,70.7,30.15,SE,135,2.2,2.2,98,0.00,,,0.00,meteobridge,2013-06-23 08:01:00,
2013-06-23 04:06:00,71.1,70.5,30.16,East,90,2.2,3.1,98,0.00,,,0.00,meteobridge,2013-06-23 08:06:00,
2013-06-23 04:11:00,71.1,70.5,30.16,SE,135,3.1,3.1,98,0.00,,,0.00,meteobridge,2013-06-23 08:11:00,
2013-06-23 04:16:00,70.9,70.3,30.15,SE,135,3.1,3.1,98,0.00,,,0.00,meteobridge,2013-06-23 08:16:00,
2013-06-23 04:21:00,70.9,70.3,30.15,SE,135,2.2,2.2,98,0.00,,,0.00,meteobridge,2013-06-23 08:21:00,
2013-06-23 04:27:00,70.9,70.3,30.16,SE,135,2.2,2.2,98,0.00,,,0.00,meteobridge,2013-06-23 08:27:00,
2013-06-23 04:32:00,71.1,70.5,30.15,East,90,3.8,3.8,98,0.00,,,0.00,meteobridge,2013-06-23 08:32:00,
2013-06-23 04:37:00,71.1,70.5,30.15,East,90,3.1,3.8,98,0.00,,,0.00,meteobridge,2013-06-23 08:37:00,
2013-06-23 04:42:00,70.9,70.3,30.16,East,90,2.2,3.8,98,0.00,,,0.00,meteobridge,2013-06-23 08:42:00,
2013-06-23 04:47:00,70.9,70.3,30.15,SE,135,2.2,3.1,98,0.00,,,0.00,meteobridge,2013-06-23 08:47:00,
2013-06-23 04:52:00,70.9,70.3,30.16,SE,135,3.8,3.8,98,0.00,,,0.00,meteobridge,2013-06-23 08:52:00,
2013-06-23 04:58:00,70.9,70.3,30.16,SE,135,2.2,3.1,98,0.00,,,0.00,meteobridge,2013-06-23 08:58:00,
2013-06-23 05:03:00,70.9,70.3,30.15,SE,135,2.2,2.2,98,0.00,,,0.00,meteobridge,2013-06-23 09:03:00,
2013-06-23 05:08:00,70.9,70.3,30.15,SE,135,2.2,3.1,98,0.00,,,0.00,meteobridge,2013-06-23 09:08:00,
2013-06-23 05:13:00,70.9,70.3,30.16,SE,135,3.1,3.8,98,0.00,,,0.00,meteobridge,2013-06-23 09:13:00,
2013-06-23 05:18:00,70.9,70.3,30.16,East,90,3.1,3.1,98,0.00,,,0.00,meteobridge,2013-06-23 09:18:00,
2013-06-23 05:23:00,70.9,70.3,30.16,SE,135,3.1,3.1,98,0.00,,,0.00,meteobridge,2013-06-23 09:23:00,
2013-06-23 05:29:00,70.9,70.3,30.16,East,90,1.6,1.6,98,0.00,,,0.00,meteobridge,2013-06-23 09:29:00,
2013-06-23 05:34:00,70.9,70.3,30.16,East,90,1.6,1.6,98,0.00,,,0.00,meteobridge,2013-06-23 09:34:00,
2013-06-23 05:39:00,70.9,70.3,30.16,East,90,2.2,2.2,98,0.00,,,0.00,meteobridge,2013-06-23 09:39:00,
2013-06-23 05:44:00,70.9,70.3,30.16,East,90,2.2,2.2,98,0.00,,,0.00,meteobridge,2013-06-23 09:44:00,
2013-06-23 05:49:00,70.9,70.3,30.16,SE,135,2.2,2.2,98,0.00,,,0.00,meteobridge,2013-06-23 09:49:00,
2013-06-23 05:54:00,70.9,70.3,30.17,East,90,2.2,3.1,98,0.00,,,0.00,meteobridge,2013-06-23 09:54:00,
2013-06-23 06:00:00,70.7,70.2,30.17,SE,135,3.1,3.1,98,0.00,,,0.00,meteobridge,2013-06-23 10:00:00,
2013-06-23 06:05:00,70.5,70.0,30.16,East,90,3.1,3.1,98,0.00,,,0.00,meteobridge,2013-06-23 10:05:00,
2013-06-23 06:10:00,70.5,70.0,30.17,East,90,3.1,3.1,98,0.00,,,0.00,meteobridge,2013-06-23 10:10:00,
2013-06-23 06:15:00,70.7,70.2,30.17,East,90,2.2,2.2,98,0.00,,,0.00,meteobridge,2013-06-23 10:15:00,
2013-06-23 06:20:00,70.7,70.2,30.17,ESE,113,2.2,3.1,98,0.00,,,0.00,meteobridge,2013-06-23 10:20:00,
2013-06-23 06:25:00,70.9,70.3,30.17,East,90,1.6,1.6,98,0.00,,,0.00,meteobridge,2013-06-23 10:25:00,
2013-06-23 06:31:00,70.9,70.3,30.17,SE,135,0.7,0.7,98,0.00,,,0.00,meteobridge,2013-06-23 10:31:00,
2013-06-23 06:36:00,71.1,70.5,30.17,East,90,3.1,3.1,98,0.00,,,0.00,meteobridge,2013-06-23 10:36:00,
2013-06-23 06:41:00,71.1,70.5,30.17,SE,135,4.5,4.5,98,0.00,,,0.00,meteobridge,2013-06-23 10:41:00,
2013-06-23 06:46:00,71.1,70.5,30.17,East,90,4.5,4.5,98,0.00,,,0.00,meteobridge,2013-06-23 10:46:00,
2013-06-23 06:51:00,70.9,70.3,30.17,East,90,3.8,4.5,98,0.00,,,0.00,meteobridge,2013-06-23 10:51:00,
2013-06-23 06:56:00,71.1,70.5,30.17,East,90,3.8,4.5,98,0.00,,,0.00,meteobridge,2013-06-23 10:56:00,
2013-06-23 07:02:00,71.2,70.7,30.17,SE,135,3.8,3.8,98,0.00,,,0.00,meteobridge,2013-06-23 11:02:00,
2013-06-23 07:07:00,72.0,71.1,30.17,East,90,3.1,3.8,97,0.00,,,0.00,meteobridge,2013-06-23 11:07:00,
2013-06-23 07:12:00,73.2,72.3,30.17,East,90,1.6,2.2,97,0.00,,,0.00,meteobridge,2013-06-23 11:12:00,
2013-06-23 07:17:00,75.6,75.2,30.18,East,90,1.6,3.1,99,0.00,,,0.00,meteobridge,2013-06-23 11:17:00,
2013-06-23 07:22:00,77.2,75.6,30.17,East,90,1.6,2.2,95,0.00,,,0.00,meteobridge,2013-06-23 11:22:00,
2013-06-23 07:27:00,77.2,74.7,30.18,East,90,1.6,1.6,92,0.00,,,0.00,meteobridge,2013-06-23 11:27:00,
2013-06-23 07:33:00,79.7,75.6,30.18,NE,45,1.6,1.6,87,0.00,,,0.00,meteobridge,2013-06-23 11:33:00,
2013-06-23 07:38:00,80.1,73.4,30.18,NE,45,0.7,2.2,80,0.00,,,0.00,meteobridge,2013-06-23 11:38:00,
2013-06-23 07:43:00,78.6,73.0,30.18,SW,225,1.6,1.6,83,0.00,,,0.00,meteobridge,2013-06-23 11:43:00,
2013-06-23 07:48:00,77.9,72.7,30.18,SW,225,3.1,3.1,84,0.00,,,0.00,meteobridge,2013-06-23 11:48:00,
2013-06-23 07:53:00,77.7,72.9,30.19,West,270,3.1,3.1,85,0.00,,,0.00,meteobridge,2013-06-23 11:53:00,
2013-06-23 07:59:00,77.7,72.5,30.19,SE,135,3.8,3.8,84,0.00,,,0.00,meteobridge,2013-06-23 11:59:00,
2013-06-23 08:04:00,77.0,72.5,30.19,SE,135,1.6,3.8,86,0.00,,,0.00,meteobridge,2013-06-23 12:04:00,
2013-06-23 08:09:00,77.0,72.5,30.19,South,180,3.8,3.8,86,0.00,,,0.00,meteobridge,2013-06-23 12:09:00,
2013-06-23 08:14:00,77.2,72.7,30.20,SSE,158,3.8,3.8,86,0.00,,,0.00,meteobridge,2013-06-23 12:14:00,
2013-06-23 08:19:00,77.2,72.7,30.19,SE,135,2.2,3.8,86,0.00,,,0.00,meteobridge,2013-06-23 12:19:00,
2013-06-23 08:24:00,77.4,72.9,30.20,South,180,3.8,3.8,86,0.00,,,0.00,meteobridge,2013-06-23 12:24:00,
2013-06-23 08:30:00,77.9,73.4,30.20,SE,135,2.2,2.2,86,0.00,,,0.00,meteobridge,2013-06-23 12:30:00,
2013-06-23 08:35:00,78.6,73.0,30.20,SE,135,3.1,3.8,83,0.00,,,0.00,meteobridge,2013-06-23 12:35:00,
2013-06-23 08:40:00,78.1,72.9,30.20,SE,135,4.5,4.5,84,0.00,,,0.00,meteobridge,2013-06-23 12:40:00,
2013-06-23 08:45:00,78.4,73.2,30.21,SW,225,3.1,4.5,84,0.00,,,0.00,meteobridge,2013-06-23 12:45:00,
2013-06-23 08:50:00,78.4,73.2,30.21,SW,225,4.5,5.4,84,0.00,,,0.00,meteobridge,2013-06-23 12:50:00,
2013-06-23 08:55:00,78.1,72.9,30.21,SSW,203,6.0,6.0,84,0.00,,,0.00,meteobridge,2013-06-23 12:55:00,
2013-06-23 09:00:00,77.7,72.9,30.21,West,270,7.6,7.6,85,0.00,,,0.00,meteobridge,2013-06-23 13:00:00,
2013-06-23 09:05:00,77.2,73.0,30.21,SW,225,5.4,6.0,87,0.00,,,0.00,meteobridge,2013-06-23 13:05:00,
2013-06-23 09:11:00,77.5,73.0,30.21,SW,225,0.0,3.8,86,0.00,,,0.00,meteobridge,2013-06-23 13:11:00,
2013-06-23 09:16:00,77.9,73.0,30.22,South,180,3.1,3.1,85,0.00,,,0.00,meteobridge,2013-06-23 13:16:00,
2013-06-23 09:21:00,78.1,73.2,30.22,South,180,1.6,1.6,85,0.00,,,0.00,meteobridge,2013-06-23 13:21:00,
2013-06-23 09:26:00,79.3,73.8,30.21,SW,225,1.6,3.1,83,0.00,,,0.00,meteobridge,2013-06-23 13:26:00,
2013-06-23 09:31:00,80.6,74.3,30.21,South,180,3.1,3.1,81,0.00,,,0.00,meteobridge,2013-06-23 13:31:00,
2013-06-23 09:36:00,80.4,73.2,30.21,South,180,3.1,5.4,79,0.00,,,0.00,meteobridge,2013-06-23 13:36:00,
2013-06-23 09:41:00,79.7,73.0,30.21,SW,225,3.1,3.8,80,0.00,,,0.00,meteobridge,2013-06-23 13:41:00,
2013-06-23 09:47:00,81.0,73.8,30.21,SW,225,0.7,1.6,79,0.00,,,0.00,meteobridge,2013-06-23 13:47:00,
2013-06-23 09:52:00,84.0,75.2,30.21,West,270,0.7,1.6,75,0.00,,,0.00,meteobridge,2013-06-23 13:52:00,
2013-06-23 09:57:00,84.7,73.9,30.21,NW,315,2.2,2.2,70,0.00,,,0.00,meteobridge,2013-06-23 13:57:00,
2013-06-23 10:02:00,82.0,72.9,30.21,SW,225,4.5,4.5,74,0.00,,,0.00,meteobridge,2013-06-23 14:02:00,
2013-06-23 10:07:00,80.4,73.8,30.21,NW,315,2.2,4.5,80,0.00,,,0.00,meteobridge,2013-06-23 14:07:00,
2013-06-23 10:12:00,81.5,73.6,30.21,West,270,2.2,3.1,77,0.00,,,0.00,meteobridge,2013-06-23 14:12:00,
2013-06-23 10:18:00,82.9,74.1,30.20,NW,315,2.2,2.2,75,0.00,,,0.00,meteobridge,2013-06-23 14:18:00,
2013-06-23 10:23:00,86.5,73.8,30.20,South,180,2.2,3.1,66,0.00,,,0.00,meteobridge,2013-06-23 14:23:00,
2013-06-23 10:28:00,87.6,73.4,30.20,West,270,0.7,1.6,63,0.00,,,0.00,meteobridge,2013-06-23 14:28:00,
2013-06-23 10:33:00,86.5,72.9,30.20,West,270,1.6,1.6,64,0.00,,,0.00,meteobridge,2013-06-23 14:33:00,
2013-06-23 10:38:00,85.6,73.4,30.20,SW,225,3.1,3.1,67,0.00,,,0.00,meteobridge,2013-06-23 14:38:00,
2013-06-23 10:43:00,86.2,73.0,30.21,West,270,3.1,3.1,65,0.00,,,0.00,meteobridge,2013-06-23 14:43:00,
2013-06-23 10:49:00,84.7,73.0,30.21,West,270,3.8,4.5,68,0.00,,,0.00,meteobridge,2013-06-23 14:49:00,
2013-06-23 10:54:00,82.9,72.5,30.20,West,270,3.8,4.5,71,0.00,,,0.00,meteobridge,2013-06-23 14:54:00,
2013-06-23 10:59:00,82.8,73.6,30.20,South,180,2.2,3.1,74,0.00,,,0.00,meteobridge,2013-06-23 14:59:00,
2013-06-23 11:05:00,84.9,73.2,30.20,NW,315,3.1,3.1,68,0.00,,,0.00,meteobridge,2013-06-23 15:05:00,
2013-06-23 11:10:00,86.2,72.5,30.19,NW,315,3.1,3.8,64,0.00,,,0.00,meteobridge,2013-06-23 15:10:00,
2013-06-23 11:15:00,86.0,72.9,30.20,West,270,3.1,3.8,65,0.00,,,0.00,meteobridge,2013-06-23 15:15:00,
2013-06-23 11:20:00,86.4,73.2,30.19,NW,315,3.8,3.8,65,0.00,,,0.00,meteobridge,2013-06-23 15:20:00,
2013-06-23 11:26:00,87.3,73.0,30.19,NW,315,3.1,3.1,63,0.00,,,0.00,meteobridge,2013-06-23 15:26:00,
2013-06-23 11:31:00,86.7,73.0,30.19,West,270,2.2,3.1,64,0.00,,,0.00,meteobridge,2013-06-23 15:31:00,
2013-06-23 11:36:00,86.2,72.5,30.19,NW,315,2.2,2.2,64,0.00,,,0.00,meteobridge,2013-06-23 15:36:00,
2013-06-23 11:41:00,86.4,72.7,30.19,West,270,2.2,2.2,64,0.00,,,0.00,meteobridge,2013-06-23 15:41:00,
2013-06-23 11:46:00,84.4,71.8,30.19,SW,225,3.1,3.8,66,0.00,,,0.00,meteobridge,2013-06-23 15:46:00,
2013-06-23 11:51:00,83.3,72.1,30.19,WSW,248,3.8,3.8,69,0.00,,,0.00,meteobridge,2013-06-23 15:51:00,
2013-06-23 11:56:00,82.6,72.1,30.19,SW,225,3.1,3.1,71,0.00,,,0.00,meteobridge,2013-06-23 15:56:00,
2013-06-23 12:01:00,83.1,72.0,30.19,SW,225,0.7,2.2,69,0.00,,,0.00,meteobridge,2013-06-23 16:01:00,
2013-06-23 12:07:00,84.6,72.3,30.19,SW,225,0.7,0.7,67,0.00,,,0.00,meteobridge,2013-06-23 16:07:00,
2013-06-23 12:12:00,86.9,73.2,30.18,SE,135,2.2,2.2,64,0.00,,,0.00,meteobridge,2013-06-23 16:12:00,
2013-06-23 12:17:00,88.5,72.9,30.18,North,0,1.6,1.6,60,0.00,,,0.00,meteobridge,2013-06-23 16:17:00,
2013-06-23 12:22:00,92.8,74.3,30.18,NW,315,2.2,2.2,55,0.00,,,0.00,meteobridge,2013-06-23 16:22:00,
2013-06-23 12:27:00,93.2,71.8,30.18,West,270,3.1,4.5,50,0.00,,,0.00,meteobridge,2013-06-23 16:27:00,
2013-06-23 12:33:00,88.7,71.4,30.19,SW,225,3.8,3.8,57,0.00,,,0.00,meteobridge,2013-06-23 16:33:00,
2013-06-23 12:38:00,86.9,71.8,30.18,North,0,1.6,3.1,61,0.00,,,0.00,meteobridge,2013-06-23 16:38:00,
2013-06-23 12:43:00,87.3,71.2,30.18,SE,135,2.2,2.2,59,0.00,,,0.00,meteobridge,2013-06-23 16:43:00,
2013-06-23 12:48:00,87.3,71.2,30.18,East,90,2.2,3.1,59,0.00,,,0.00,meteobridge,2013-06-23 16:48:00,
2013-06-23 12:53:00,89.6,71.8,30.18,NE,45,2.2,3.8,56,0.00,,,0.00,meteobridge,2013-06-23 16:53:00,
2013-06-23 12:57:00,90.0,71.6,30.17,NNW,338,6.9,6.9,55,0.00,,,0.00,meteobridge,2013-06-23 16:57:00,
2013-06-23 12:58:00,89.8,72.0,30.17,NNW,338,4.5,6.9,56,0.00,,,0.00,meteobridge,2013-06-23 16:58:00,
2013-06-23 12:59:00,89.6,71.8,30.17,North,0,6.0,6.9,56,0.00,,,0.00,meteobridge,2013-06-23 16:59:00,
2013-06-23 13:04:00,88.5,72.3,30.17,NW,315,5.4,6.0,59,0.00,,,0.00,meteobridge,2013-06-23 17:04:00,
2013-06-23 13:09:00,86.5,72.0,30.17,NW,315,3.8,5.4,62,0.00,,,0.00,meteobridge,2013-06-23 17:09:00,
2013-06-23 13:14:00,86.2,72.1,30.17,NW,315,2.2,4.5,63,0.00,,,0.00,meteobridge,2013-06-23 17:14:00,
2013-06-23 13:19:00,86.2,72.5,30.16,NE,45,3.1,6.0,64,0.00,,,0.00,meteobridge,2013-06-23 17:19:00,
2013-06-23 13:24:00,86.5,72.9,30.16,NNE,23,3.8,3.8,64,0.00,,,0.00,meteobridge,2013-06-23 17:24:00,
2013-06-23 13:30:00,87.8,72.7,30.16,NNE,23,3.8,3.8,61,0.00,,,0.00,meteobridge,2013-06-23 17:30:00,
2013-06-23 13:35:00,87.8,71.2,30.16,East,90,3.1,3.1,58,0.00,,,0.00,meteobridge,2013-06-23 17:35:00,
2013-06-23 13:40:00,87.1,72.0,30.16,NE,45,3.8,3.8,61,0.00,,,0.00,meteobridge,2013-06-23 17:40:00,
2013-06-23 13:45:00,87.1,72.9,30.16,East,90,3.1,3.1,63,0.00,,,0.00,meteobridge,2013-06-23 17:45:00,
2013-06-23 13:50:00,87.1,72.0,30.16,East,90,2.2,4.5,61,0.00,,,0.00,meteobridge,2013-06-23 17:50:00,
2013-06-23 13:55:00,90.1,73.4,30.16,NE,45,1.6,1.6,58,0.00,,,0.00,meteobridge,2013-06-23 17:55:00,
2013-06-23 14:01:00,89.6,71.2,30.16,SE,135,2.2,4.5,55,0.00,,,0.00,meteobridge,2013-06-23 18:01:00,
2013-06-23 14:06:00,87.6,72.0,30.16,SE,135,3.1,6.9,60,0.00,,,0.00,meteobridge,2013-06-23 18:06:00,
2013-06-23 14:11:00,87.1,72.5,30.15,East,90,5.4,7.6,62,0.00,,,0.00,meteobridge,2013-06-23 18:11:00,
2013-06-23 14:16:00,87.3,73.0,30.15,SE,135,7.6,7.6,63,0.00,,,0.00,meteobridge,2013-06-23 18:16:00,
2013-06-23 14:21:00,87.1,71.4,30.15,SE,135,3.8,5.4,60,0.00,,,0.00,meteobridge,2013-06-23 18:21:00,
2013-06-23 14:26:00,87.3,70.7,30.14,East,90,8.3,10.7,58,0.00,,,0.00,meteobridge,2013-06-23 18:26:00,
2013-06-23 14:32:00,86.5,70.5,30.15,SE,135,5.4,10.7,59,0.00,,,0.00,meteobridge,2013-06-23 18:32:00,
2013-06-23 14:37:00,86.2,69.6,30.14,East,90,6.9,9.8,58,0.00,,,0.00,meteobridge,2013-06-23 18:37:00,
2013-06-23 14:42:00,86.4,69.8,30.14,South,180,6.0,6.0,58,0.00,,,0.00,meteobridge,2013-06-23 18:42:00,
2013-06-23 14:47:00,86.4,70.9,30.14,East,90,6.0,9.2,60,0.00,,,0.00,meteobridge,2013-06-23 18:47:00,
2013-06-23 14:52:00,86.2,71.6,30.14,East,90,6.9,8.3,62,0.00,,,0.00,meteobridge,2013-06-23 18:52:00,
2013-06-23 14:57:00,86.9,70.9,30.14,NE,45,5.4,5.4,59,0.00,,,0.00,meteobridge,2013-06-23 18:57:00,
2013-06-23 15:03:00,88.9,71.1,30.14,East,90,8.3,8.3,56,0.00,,,0.00,meteobridge,2013-06-23 19:03:00,
2013-06-23 15:08:00,86.4,70.3,30.13,East,90,7.6,8.3,59,0.00,,,0.00,meteobridge,2013-06-23 19:08:00,
2013-06-23 15:13:00,84.7,69.8,30.12,SE,135,7.6,7.6,61,0.00,,,0.00,meteobridge,2013-06-23 19:13:00,
2013-06-23 15:18:00,84.0,70.0,30.13,SE,135,6.0,7.6,63,0.00,,,0.00,meteobridge,2013-06-23 19:18:00,
2013-06-23 15:23:00,84.0,71.4,30.12,SE,135,6.0,6.9,66,0.00,,,0.00,meteobridge,2013-06-23 19:23:00,
2013-06-23 15:28:00,84.4,71.8,30.12,East,90,6.9,6.9,66,0.00,,,0.00,meteobridge,2013-06-23 19:28:00,
2013-06-23 15:34:00,85.5,72.0,30.12,East,90,6.9,6.9,64,0.00,,,0.00,meteobridge,2013-06-23 19:34:00,
2013-06-23 15:39:00,87.1,70.5,30.12,SE,135,5.4,6.0,58,0.00,,,0.00,meteobridge,2013-06-23 19:39:00,
2013-06-23 15:44:00,88.0,70.9,30.11,East,90,6.9,6.9,57,0.00,,,0.00,meteobridge,2013-06-23 19:44:00,
2013-06-23 15:49:00,87.8,70.2,30.11,South,180,4.5,4.5,56,0.00,,,0.00,meteobridge,2013-06-23 19:49:00,
2013-06-23 15:54:00,89.8,70.3,30.11,East,90,3.1,3.8,53,0.00,,,0.00,meteobridge,2013-06-23 19:54:00,
2013-06-23 15:59:00,90.7,70.7,30.11,NW,315,1.6,1.6,52,0.00,,,0.00,meteobridge,2013-06-23 19:59:00,
2013-06-23 16:05:00,92.5,71.1,30.11,SE,135,4.5,4.5,50,0.00,,,0.00,meteobridge,2013-06-23 20:05:00,
2013-06-23 16:10:00,90.5,70.0,30.11,SE,135,3.1,3.8,51,0.00,,,0.00,meteobridge,2013-06-23 20:10:00,
2013-06-23 16:15:00,87.8,69.1,30.11,East,90,4.5,4.5,54,0.00,,,0.00,meteobridge,2013-06-23 20:15:00,
2013-06-23 16:20:00,86.7,71.2,30.11,South,180,3.1,3.1,60,0.00,,,0.00,meteobridge,2013-06-23 20:20:00,
2013-06-23 16:25:00,85.3,72.1,30.12,South,180,1.6,2.2,65,0.00,,,0.00,meteobridge,2013-06-23 20:25:00,
2013-06-23 16:31:00,84.7,72.5,30.11,South,180,2.2,2.2,67,0.00,,,0.00,meteobridge,2013-06-23 20:31:00,
2013-06-23 16:36:00,84.6,72.3,30.11,SE,135,3.8,4.5,67,0.00,,,0.00,meteobridge,2013-06-23 20:36:00,
2013-06-23 16:41:00,84.0,72.7,30.11,SE,135,1.6,2.2,69,0.00,,,0.00,meteobridge,2013-06-23 20:41:00,
2013-06-23 16:46:00,83.8,73.0,30.11,SE,135,2.2,2.2,70,0.00,,,0.00,meteobridge,2013-06-23 20:46:00,
2013-06-23 16:51:00,84.0,73.6,30.11,SE,135,3.1,3.8,71,0.00,,,0.00,meteobridge,2013-06-23 20:51:00,
2013-06-23 16:56:00,83.5,73.9,30.11,SE,135,2.2,2.2,73,0.00,,,0.00,meteobridge,2013-06-23 20:56:00,
2013-06-23 17:02:00,83.1,73.6,30.11,East,90,3.1,3.1,73,0.00,,,0.00,meteobridge,2013-06-23 21:02:00,
2013-06-23 17:07:00,83.1,73.9,30.12,SE,135,2.2,3.8,74,0.00,,,0.00,meteobridge,2013-06-23 21:07:00,
2013-06-23 17:12:00,82.8,73.6,30.12,SE,135,1.6,3.1,74,0.00,,,0.00,meteobridge,2013-06-23 21:12:00,
2013-06-23 17:17:00,82.8,73.9,30.11,East,90,2.2,2.2,75,0.00,,,0.00,meteobridge,2013-06-23 21:17:00,
2013-06-23 17:22:00,82.8,74.5,30.11,East,90,3.1,3.1,76,0.00,,,0.00,meteobridge,2013-06-23 21:22:00,
2013-06-23 17:27:00,82.4,74.1,30.11,SE,135,1.6,1.6,76,0.00,,,0.00,meteobridge,2013-06-23 21:27:00,
2013-06-23 17:32:00,82.2,75.4,30.11,SE,135,3.1,3.1,80,0.00,,,0.00,meteobridge,2013-06-23 21:32:00,
2013-06-23 17:37:00,81.3,75.7,30.11,SE,135,2.2,3.1,83,0.00,,,0.00,meteobridge,2013-06-23 21:37:00,
2013-06-23 17:42:00,80.8,75.9,30.11,South,180,0.7,1.6,85,0.00,,,0.00,meteobridge,2013-06-23 21:42:00,
2013-06-23 17:48:00,81.0,76.5,30.11,South,180,1.6,2.2,86,0.00,,,0.00,meteobridge,2013-06-23 21:48:00,
2013-06-23 17:53:00,80.8,75.6,30.11,SW,225,1.6,1.6,84,0.00,,,0.00,meteobridge,2013-06-23 21:53:00,
2013-06-23 17:58:00,81.3,76.1,30.11,South,180,1.6,1.6,84,0.00,,,0.00,meteobridge,2013-06-23 21:58:00,
2013-06-23 18:03:00,82.2,76.1,30.11,SW,225,1.6,1.6,82,0.00,,,0.00,meteobridge,2013-06-23 22:03:00,
2013-06-23 18:08:00,82.6,76.1,30.12,South,180,2.2,3.1,81,0.00,,,0.00,meteobridge,2013-06-23 22:08:00,
2013-06-23 18:13:00,82.6,76.1,30.12,SW,225,6.9,6.9,81,0.00,,,0.00,meteobridge,2013-06-23 22:13:00,
2013-06-23 18:19:00,82.0,75.9,30.12,South,180,3.8,4.5,82,0.00,,,0.00,meteobridge,2013-06-23 22:19:00,
2013-06-23 18:24:00,82.0,75.9,30.12,South,180,2.2,2.2,82,0.00,,,0.00,meteobridge,2013-06-23 22:24:00,
2013-06-23 18:29:00,82.2,76.5,30.11,SE,135,3.1,3.1,83,0.00,,,0.00,meteobridge,2013-06-23 22:29:00,
2013-06-23 18:34:00,82.0,76.3,30.12,SE,135,3.1,3.1,83,0.00,,,0.00,meteobridge,2013-06-23 22:34:00,
2013-06-23 18:39:00,81.9,76.1,30.12,SE,135,1.6,2.2,83,0.00,,,0.00,meteobridge,2013-06-23 22:39:00,
2013-06-23 18:44:00,82.2,76.5,30.12,South,180,2.2,2.2,83,0.00,,,0.00,meteobridge,2013-06-23 22:44:00,
2013-06-23 18:50:00,82.2,76.5,30.11,SE,135,1.6,1.6,83,0.00,,,0.00,meteobridge,2013-06-23 22:50:00,
2013-06-23 18:55:00,82.6,76.5,30.11,South,180,0.7,0.7,82,0.00,,,0.00,meteobridge,2013-06-23 22:55:00,
2013-06-23 19:00:00,82.8,76.3,30.11,South,180,0.7,1.6,81,0.00,,,0.00,meteobridge,2013-06-23 23:00:00,
2013-06-23 19:05:00,82.6,76.5,30.12,SE,135,0.7,2.2,82,0.00,,,0.00,meteobridge,2013-06-23 23:05:00,
2013-06-23 19:10:00,82.2,76.1,30.11,SE,135,0.7,2.2,82,0.00,,,0.00,meteobridge,2013-06-23 23:10:00,
2013-06-23 19:15:00,82.2,76.1,30.11,SE,135,1.6,2.2,82,0.00,,,0.00,meteobridge,2013-06-23 23:15:00,
2013-06-23 19:21:00,82.2,76.5,30.12,SW,225,1.6,2.2,83,0.00,,,0.00,meteobridge,2013-06-23 23:21:00,
2013-06-23 19:26:00,82.2,76.1,30.11,SW,225,3.1,3.1,82,0.00,,,0.00,meteobridge,2013-06-23 23:26:00,
2013-06-23 19:31:00,82.2,76.1,30.12,SW,225,2.2,2.2,82,0.00,,,0.00,meteobridge,2013-06-23 23:31:00,
2013-06-23 19:36:00,82.0,76.3,30.12,SW,225,0.7,1.6,83,0.00,,,0.00,meteobridge,2013-06-23 23:36:00,
2013-06-23 19:41:00,82.4,76.6,30.13,SW,225,3.1,3.1,83,0.00,,,0.00,meteobridge,2013-06-23 23:41:00,
2013-06-23 19:46:00,82.4,77.0,30.13,SW,225,2.2,2.2,84,0.00,,,0.00,meteobridge,2013-06-23 23:46:00,
2013-06-23 19:52:00,82.2,76.5,30.13,South,180,2.2,2.2,83,0.00,,,0.00,meteobridge,2013-06-23 23:52:00,
2013-06-23 19:57:00,82.0,76.3,30.14,SW,225,2.2,2.2,83,0.00,,,0.00,meteobridge,2013-06-23 23:57:00,
2013-06-23 20:02:00,81.9,76.8,30.14,SW,225,3.1,3.1,85,0.00,,,0.00,meteobridge,2013-06-24 00:02:00,
2013-06-23 20:07:00,81.9,76.5,30.14,SW,225,5.4,5.4,84,0.00,,,0.00,meteobridge,2013-06-24 00:07:00,
2013-06-23 20:12:00,81.7,76.3,30.14,SW,225,4.5,4.5,84,0.00,,,0.00,meteobridge,2013-06-24 00:12:00,
2013-06-23 20:17:00,81.7,75.9,30.14,South,180,4.5,4.5,83,0.00,,,0.00,meteobridge,2013-06-24 00:17:00,
2013-06-23 20:23:00,81.7,75.9,30.14,SW,225,5.4,5.4,83,0.00,,,0.00,meteobridge,2013-06-24 00:23:00,
2013-06-23 20:28:00,81.3,75.7,30.14,South,180,4.5,4.5,83,0.00,,,0.00,meteobridge,2013-06-24 00:28:00,
2013-06-23 20:33:00,80.8,75.2,30.14,SW,225,3.1,3.1,83,0.00,,,0.00,meteobridge,2013-06-24 00:33:00,
2013-06-23 20:38:00,80.1,75.2,30.14,SE,135,1.6,3.8,85,0.00,,,0.00,meteobridge,2013-06-24 00:38:00,
2013-06-23 20:43:00,79.7,75.6,30.14,SE,135,3.8,3.8,87,0.00,,,0.00,meteobridge,2013-06-24 00:43:00,
2013-06-23 20:48:00,79.2,75.4,30.14,SE,135,2.2,5.4,88,0.00,,,0.00,meteobridge,2013-06-24 00:48:00,
2013-06-23 20:54:00,79.0,75.4,30.14,SE,135,3.8,3.8,89,0.00,,,0.00,meteobridge,2013-06-24 00:54:00,
2013-06-23 20:59:00,78.8,75.6,30.15,SE,135,1.6,3.8,90,0.00,,,0.00,meteobridge,2013-06-24 00:59:00,
2013-06-23 21:04:00,78.6,75.4,30.15,SE,135,5.4,7.6,90,0.00,,,0.00,meteobridge,2013-06-24 01:04:00,
2013-06-23 21:09:00,78.6,74.5,30.15,East,90,10.7,13.6,87,0.00,,,0.00,meteobridge,2013-06-24 01:09:00,
2013-06-23 21:14:00,78.4,73.9,30.15,ESE,113,11.4,11.4,86,0.00,,,0.00,meteobridge,2013-06-24 01:14:00,
2013-06-23 21:19:00,77.9,73.4,30.14,East,90,6.9,7.6,86,0.00,,,0.00,meteobridge,2013-06-24 01:19:00,
2013-06-23 21:25:00,77.4,72.5,30.14,SE,135,4.5,4.5,85,0.00,,,0.00,meteobridge,2013-06-24 01:25:00,
2013-06-23 21:30:00,77.4,72.9,30.14,SE,135,3.8,3.8,86,0.00,,,0.00,meteobridge,2013-06-24 01:30:00,
2013-06-23 21:35:00,77.0,72.5,30.14,East,90,3.1,3.1,86,0.00,,,0.00,meteobridge,2013-06-24 01:35:00,
2013-06-23 21:40:00,76.8,73.0,30.14,East,90,5.4,5.4,88,0.00,,,0.00,meteobridge,2013-06-24 01:40:00,
2013-06-23 21:45:00,76.5,73.0,30.14,East,90,3.8,3.8,89,0.00,,,0.00,meteobridge,2013-06-24 01:45:00,
2013-06-23 21:51:00,76.3,72.9,30.14,SE,135,0.7,0.7,89,0.00,,,0.00,meteobridge,2013-06-24 01:51:00,
2013-06-23 21:56:00,75.9,72.9,30.14,East,90,1.6,2.2,90,0.00,,,0.00,meteobridge,2013-06-24 01:56:00,
2013-06-23 22:01:00,75.9,73.0,30.15,SE,135,1.6,1.6,91,0.00,,,0.00,meteobridge,2013-06-24 02:01:00,
2013-06-23 22:06:00,75.7,72.9,30.15,SE,135,2.2,2.2,91,0.00,,,0.00,meteobridge,2013-06-24 02:06:00,
2013-06-23 22:11:00,75.7,73.6,30.16,East,90,3.1,3.1,93,0.00,,,0.00,meteobridge,2013-06-24 02:11:00,
2013-06-23 22:16:00,75.6,73.8,30.16,SE,135,3.8,4.5,94,0.00,,,0.00,meteobridge,2013-06-24 02:16:00,
2013-06-23 22:22:00,75.4,73.6,30.16,East,90,3.1,3.1,94,0.00,,,0.00,meteobridge,2013-06-24 02:22:00,
2013-06-23 22:27:00,75.4,73.6,30.16,East,90,3.1,3.8,94,0.00,,,0.00,meteobridge,2013-06-24 02:27:00,
2013-06-23 22:32:00,75.4,73.6,30.16,East,90,3.8,4.5,94,0.00,,,0.00,meteobridge,2013-06-24 02:32:00,
2013-06-23 22:37:00,75.6,73.8,30.16,SW,225,2.2,2.2,94,0.00,,,0.00,meteobridge,2013-06-24 02:37:00,
2013-06-23 22:42:00,75.6,73.9,30.16,WSW,248,2.2,4.5,95,0.00,,,0.00,meteobridge,2013-06-24 02:42:00,
2013-06-23 22:47:00,75.6,73.8,30.16,South,180,6.0,6.0,94,0.00,,,0.00,meteobridge,2013-06-24 02:47:00,
2013-06-23 22:53:00,75.6,73.0,30.16,South,180,1.6,3.8,92,0.00,,,0.00,meteobridge,2013-06-24 02:53:00,
2013-06-23 22:58:00,75.4,72.9,30.16,ESE,113,3.8,3.8,92,0.00,,,0.00,meteobridge,2013-06-24 02:58:00,
2013-06-23 23:03:00,75.2,72.3,30.16,SE,135,3.1,3.1,91,0.00,,,0.00,meteobridge,2013-06-24 03:03:00,
2013-06-23 23:08:00,75.0,72.5,30.16,South,180,4.5,4.5,92,0.00,,,0.00,meteobridge,2013-06-24 03:08:00,
2013-06-23 23:13:00,75.0,72.5,30.16,SE,135,2.2,2.2,92,0.00,,,0.00,meteobridge,2013-06-24 03:13:00,
2013-06-23 23:18:00,74.7,72.1,30.16,East,90,3.1,3.1,92,0.00,,,0.00,meteobridge,2013-06-24 03:18:00,
2013-06-23 23:24:00,74.7,72.1,30.16,SE,135,3.1,3.1,92,0.00,,,0.00,meteobridge,2013-06-24 03:24:00,
2013-06-23 23:29:00,74.7,72.1,30.16,NE,45,0.0,2.2,92,0.00,,,0.00,meteobridge,2013-06-24 03:29:00,
2013-06-23 23:34:00,74.5,72.0,30.16,South,180,2.2,2.2,92,0.00,,,0.00,meteobridge,2013-06-24 03:34:00,
2013-06-23 23:39:00,74.5,71.6,30.17,South,180,1.6,3.1,91,0.00,,,0.00,meteobridge,2013-06-24 03:39:00,
2013-06-23 23:44:00,74.5,71.6,30.17,South,180,2.2,3.1,91,0.00,,,0.00,meteobridge,2013-06-24 03:44:00,
2013-06-23 23:49:00,74.3,71.4,30.17,SE,135,2.2,3.1,91,0.00,,,0.00,meteobridge,2013-06-24 03:49:00,
2013-06-23 23:55:00,74.1,71.2,30.17,SE,135,0.7,3.1,91,0.00,,,0.00,meteobridge,2013-06-24 03:55:00,